• Join FlightAware (Why Join?)
  • Login
  • US Flag 
04:23AM EDT


 

Airport Tracker/Info


-or-


 

Live Flight TrackerFlight Track Log ✈ OPT732 ✈ 01-May-2013 ✈ KFCM - KBFI

Flight Track Log - Related Links

Times and Time Zones

All times are in EDT time to prevent confusion due to time zone crossing. See the OPT732 flight status page for this flight to view local times or setup timezone preferences in your user account.

Time Position Orientation Groundspeed Altitude Reporting Facility
EDT Latitude Longitude Course Direction KTS MPH feet Rate Location/Type
04:11PM 44.8333 -93.4833 270° West 170 196 1,800  Level Minneapolis TRACON
04:11PM 44.8333 -93.5500 270° West 209 241 3,600 1,500 Climbing Minneapolis TRACON
04:12PM 44.8525 -93.6014 298° West 207 238 4,000 240 Climbing Minneapolis Center
04:13PM 44.8756 -93.6814 292° West 220 253 4,100 840 Climbing Minneapolis Center
04:14PM 44.8997 -93.7697 291° West 240 276 5,800 1,740 Climbing Minneapolis Center
04:15PM 44.9169 -93.8631 285° West 247 284 7,700 1,500 Climbing Minneapolis Center
04:16PM 44.9308 -93.9617 281° West 258 297 9,000 2,100 Climbing Minneapolis Center
04:17PM 44.9461 -94.0681 282° West 276 318 12,100 2,580 Climbing Minneapolis Center
04:18PM 44.9742 -94.1733 291° West 289 333 14,300 2,280 Climbing Minneapolis Center
04:19PM 45.0086 -94.3083 290° West 306 352 16,800 2,040 Climbing Minneapolis Center
04:20PM 45.0389 -94.4225 291° West 311 358 18,600 2,040 Climbing Minneapolis Center
04:21PM 45.0683 -94.5381 290° West 314 361 21,100 2,460 Climbing Minneapolis Center
04:22PM 45.1050 -94.6769 291° West 331 381 23,800 2,340 Climbing Minneapolis Center
04:23PM 45.1386 -94.8069 290° West 345 397 26,000 2,160 Climbing Minneapolis Center
04:24PM 45.1731 -94.9406 290° West 358 412 28,300 1,980 Climbing Minneapolis Center
04:25PM 45.2089 -95.0817 290° West 374 430 30,200 2,220 Climbing Minneapolis Center
04:26PM 45.2469 -95.2300 290° West 393 452 32,900 2,220 Climbing Minneapolis Center
04:28PM 45.2853 -95.3786 290° West 400 460 34,800 1,980 Climbing Minneapolis Center
04:29PM 45.3325 -95.5658 290° West 417 480 37,000 1,740 Climbing Minneapolis Center
04:30PM 45.3639 -95.6928 289° West 423 487 38,500 1,680 Climbing Minneapolis Center
04:31PM 45.4111 -95.8819 290° West 426 490 40,500 1,560 Climbing Minneapolis Center
04:32PM 45.4494 -96.0378 289° West 421 484 41,800 1,200 Climbing Minneapolis Center
04:33PM 45.4867 -96.1936 289° West 419 482 43,000 540 Climbing Minneapolis Center
04:34PM 45.5331 -96.3833 289° West 425 489 43,000  Level Minneapolis Center
04:35PM 45.5664 -96.5514 286° West 440 506 43,100 420 Climbing Minneapolis Center
04:36PM 45.5994 -96.7206 286° West 444 511 43,900 720 Climbing Minneapolis Center
04:37PM 45.6317 -96.8872 286° West 439 505 44,700 480 Climbing Minneapolis Center
04:38PM 45.6631 -97.0547 285° West 439 505 45,000 120 Climbing Minneapolis Center
04:39PM 45.7008 -97.2592 285° West 444 511 45,000  Level Minneapolis Center
04:40PM 45.7336 -97.4311 285° West 449 517 45,000  Level Minneapolis Center
04:41PM 45.7661 -97.6064 285° West 455 524 45,000  Level Minneapolis Center
04:42PM 45.7989 -97.7819 285° West 457 526 45,000  Level Minneapolis Center
04:43PM 45.8303 -97.9528 285° West 450 518 45,000  Level Minneapolis Center
04:44PM 45.8633 -98.1328 285° West 446 513 45,000  Level Minneapolis Center
04:45PM 45.8956 -98.3064 285° West 449 517 45,000  Level Minneapolis Center
04:46PM 45.9325 -98.5158 284° West 452 520 45,000  Level Minneapolis Center
04:47PM 45.9633 -98.6922 284° West 455 524 45,000  Level Minneapolis Center
04:48PM 45.9939 -98.8703 284° West 458 527 45,000  Level Minneapolis Center
04:49PM 46.0242 -99.0483 284° West 460 529 45,000  Level Minneapolis Center
04:50PM 46.0547 -99.2294 284° West 464 534 45,000  Level Minneapolis Center
04:51PM 46.0856 -99.4108 284° West 467 537 45,000  Level Minneapolis Center
04:52PM 46.1206 -99.6258 283° West 463 533 45,000  Level Minneapolis Center
04:53PM 46.1506 -99.8033 284° West 461 531 45,000  Level Minneapolis Center
04:54PM 46.1803 -99.9836 283° West 462 532 45,000  Level Minneapolis Center
04:55PM 46.2092 -100.1653 283° West 464 534 45,000  Level Minneapolis Center
04:56PM 46.2375 -100.3472 283° West 466 536 45,000  Level Minneapolis Center
04:58PM 46.2661 -100.5325 283° West 469 540 45,000  Level Minneapolis Center
04:59PM 46.2994 -100.7472 283° West 464 534 45,000  Level Minneapolis Center
05:00PM 46.3272 -100.9300 282° West 464 534 45,000  Level Minneapolis Center
05:01PM 46.3561 -101.1131 283° West 466 536 45,000  Level Minneapolis Center
05:02PM 46.3842 -101.2989 282° West 470 541 45,000  Level Minneapolis Center
05:03PM 46.4114 -101.4825 282° West 470 541 45,000  Level Minneapolis Center
05:04PM 46.4439 -101.7025 282° West 467 537 45,000  Level Minneapolis Center
05:05PM 46.4706 -101.8700 283° West 468 539 45,000  Level Minneapolis Center
05:06PM 46.4958 -102.0544 281° West 467 537 45,000  Level Minneapolis Center
05:07PM 46.5236 -102.2347 283° West 463 533 45,000  Level Minneapolis Center
05:08PM 46.5536 -102.4556 281° West 464 534 45,000  Level Minneapolis Center
05:09PM 46.5789 -102.6378 281° West 462 532 45,000  Level Minneapolis Center
05:10PM 46.6042 -102.8197 281° West 461 531 45,000  Level Minneapolis Center
05:11PM 46.6267 -103.0036 280° West 460 529 45,000  Level Salt Lake Center
05:12PM 46.6497 -103.1867 280° West 459 528 45,000  Level Salt Lake Center
05:13PM 46.6783 -103.4033 281° West 457 526 45,000  Level Salt Lake Center
05:14PM 46.7008 -103.5836 280° West 455 524 45,000  Level Salt Lake Center
05:15PM 46.7242 -103.7639 281° West 454 522 45,000  Level Salt Lake Center
05:16PM 46.7467 -103.9436 280° West 453 521 45,000  Level Salt Lake Center
05:17PM 46.7686 -104.1228 280° West 450 518 45,000  Level Salt Lake Center
05:18PM 46.7908 -104.3058 280° West 454 522 45,000  Level Salt Lake Center
05:19PM 46.8122 -104.4853 280° West 453 521 45,000 -60 Level Salt Lake Center
05:20PM 46.8342 -104.6689 280° West 454 522 44,900  Descending Salt Lake Center
05:21PM 46.8589 -104.8867 280° West 455 524 45,000  Climbing Salt Lake Center
05:22PM 46.8797 -105.0694 280° West 456 525 45,000  Level Salt Lake Center
05:23PM 46.9014 -105.2542 280° West 460 529 45,000 -60 Level Salt Lake Center
05:24PM 46.9225 -105.4400 280° West 461 531 44,900  Descending Salt Lake Center
05:25PM 46.9422 -105.6206 279° West 455 524 45,000  Climbing Salt Lake Center
05:26PM 46.9633 -105.8047 280° West 457 526 44,900  Descending Salt Lake Center
05:27PM 46.9833 -105.9867 279° West 456 525 45,000  Climbing Salt Lake Center
05:29PM 47.0028 -106.1683 279° West 454 522 45,000  Level Salt Lake Center
05:30PM 47.0250 -106.3731 279° West 454 522 45,000  Level Salt Lake Center
05:31PM 47.0450 -106.5778 278° West 456 525 45,000  Level Salt Lake Center
05:32PM 47.0617 -106.7531 278° West 455 524 45,000  Level Salt Lake Center
05:33PM 47.0822 -106.9603 278° West 459 528 45,000  Level Salt Lake Center
05:34PM 47.0997 -107.1383 278° West 460 529 45,000  Level Salt Lake Center
05:35PM 47.1161 -107.3164 278° West 461 531 45,000  Level Salt Lake Center
05:36PM 47.1358 -107.5233 278° West 459 528 45,000  Level Salt Lake Center
05:37PM 47.1511 -107.7028 277° West 461 531 45,000  Level Salt Lake Center
05:38PM 47.1697 -107.9125 278° West 464 534 45,000  Level Salt Lake Center
05:39PM 47.1864 -108.0914 278° West 464 534 45,000  Level Salt Lake Center
05:40PM 47.2036 -108.3008 277° West 463 533 45,000  Level Salt Lake Center
05:41PM 47.2186 -108.4831 277° West 466 536 45,000  Level Salt Lake Center
05:42PM 47.2325 -108.6542 277° West 467 537 45,000  Level Salt Lake Center
05:43PM 47.2503 -108.8808 277° West 465 535 45,000  Level Salt Lake Center
05:44PM 47.2650 -109.0686 277° West 464 534 45,000  Level Salt Lake Center
05:45PM 47.2853 -109.2575 279° West 467 537 45,000  Level Salt Lake Center
05:46PM 47.3317 -109.4336 291° West 465 535 45,000  Level Salt Lake Center
05:47PM 47.3417 -109.6228 275° West 465 535 45,000  Level Salt Lake Center
05:48PM 47.3525 -109.8153 275° West 469 540 45,000  Level Salt Lake Center
05:49PM 47.3650 -110.0056 276° West 469 540 45,000  Level Salt Lake Center
05:50PM 47.3778 -110.2331 275° West 465 535 45,000  Level Salt Lake Center
05:51PM 47.3889 -110.4236 275° West 467 537 45,000 -60 Level Salt Lake Center
05:52PM 47.3992 -110.6142 275° West 467 537 44,900  Descending Salt Lake Center
05:53PM 47.4094 -110.8072 275° West 470 541 45,000  Climbing Salt Lake Center
05:54PM 47.4197 -111.0006 275° West 471 542 45,000  Level Salt Lake Center
05:55PM 47.4294 -111.1947 274° West 470 541 45,000  Level Salt Lake Center
05:56PM 47.4378 -111.3903 274° West 470 541 45,000  Level Salt Lake Center
05:57PM 47.4475 -111.5853 274° West 469 540 45,000 -60 Level Salt Lake Center
05:58PM 47.4558 -111.7769 274° West 467 537 44,900  Descending Salt Lake Center
05:59PM 47.4642 -111.9681 274° West 466 536 45,000  Climbing Salt Lake Center
06:00PM 47.4733 -112.1983 273° West 467 537 44,900 -60 Descending Salt Lake Center
06:01PM 47.4803 -112.3922 273° West 472 543 44,900  Level Salt Lake Center
06:02PM 47.4883 -112.5825 274° West 468 539 45,000  Climbing Salt Lake Center
06:03PM 47.4950 -112.7736 273° West 466 536 45,000  Level Salt Lake Center
06:04PM 47.5033 -112.9608 274° West 465 535 45,000  Level Salt Lake Center
06:06PM 47.5100 -113.1500 273° West 463 533 45,000  Level Salt Lake Center
06:07PM 47.5158 -113.3392 273° West 461 531 45,000  Level Salt Lake Center
06:08PM 47.5208 -113.5658 272° West 459 528 45,000  Level Salt Lake Center
06:09PM 47.5264 -113.7542 273° West 458 527 45,000  Level Salt Lake Center
06:10PM 47.5311 -113.9425 272° West 458 527 45,000  Level Salt Lake Center
06:11PM 47.5356 -114.1317 272° West 458 527 45,000  Level Salt Lake Center
06:12PM 47.5403 -114.3222 272° West 460 529 45,000  Level Salt Lake Center
06:13PM 47.5439 -114.5128 272° West 462 532 45,000  Level Salt Lake Center
06:13PM 47.5467 -114.6286 272° West 462 532 45,000 -120 Level Seattle Center
06:14PM 47.5497 -114.8192 271° West 461 531 44,900  Descending Seattle Center
06:15PM 47.5531 -115.0100 272° West 462 532 45,000  Climbing Seattle Center
06:16PM 47.5561 -115.1994 271° West 461 531 45,000  Level Seattle Center
06:17PM 47.5594 -115.3897 272° West 462 532 45,000  Level Seattle Center
06:18PM 47.5608 -115.5822 271° West 465 535 45,000  Level Seattle Center
06:19PM 47.5633 -115.7981 271° West 465 535 45,000  Level Seattle Center
06:20PM 47.5636 -115.9914 270° West 468 539 45,000  Level Seattle Center
06:21PM 47.5650 -116.1853 271° West 471 542 45,000  Level Seattle Center
06:22PM 47.5661 -116.3783 271° West 472 543 45,000  Level Seattle Center
06:24PM 47.5669 -116.5714 270° West 470 541 45,000  Level Seattle Center
06:25PM 47.5675 -116.7631 270° West 467 537 45,000  Level Seattle Center
06:26PM 47.5692 -116.9675 271° West 467 537 45,000  Level Seattle Center
06:27PM 47.5675 -117.1600 269° West 466 536 45,000  Level Seattle Center
06:28PM 47.5664 -117.3558 270° West 467 537 45,000  Level Seattle Center
06:29PM 47.5658 -117.5472 270° West 467 537 45,000 -60 Level Seattle Center
06:30PM 47.5747 -117.7344 274° West 457 526 44,900  Descending Seattle Center
06:31PM 47.5931 -117.9203 278° West 456 525 45,000  Climbing Seattle Center
06:32PM 47.6103 -118.1061 278° West 457 526 44,900 -60 Descending Seattle Center
06:33PM 47.6264 -118.2917 277° West 456 525 44,900  Level Seattle Center
06:34PM 47.6428 -118.4775 278° West 456 525 44,900  Level Seattle Center
06:35PM 47.6636 -118.7003 278° West 457 526 45,000  Climbing Seattle Center
06:36PM 47.6797 -118.8850 277° West 454 522 45,000 -60 Level Seattle Center
06:37PM 47.6947 -119.0703 277° West 454 522 44,900 -60 Descending Seattle Center
06:38PM 47.7106 -119.2519 277° West 447 514 44,900  Level Seattle Center
06:39PM 47.7239 -119.4314 276° West 439 505 45,000  Climbing Seattle Center
06:40PM 47.7383 -119.6072 277° West 433 498 45,000  Level Seattle Center
06:41PM 47.7511 -119.7831 276° West 429 494 45,000  Level Seattle Center
06:42PM 47.7647 -119.9575 277° West 426 490 45,000  Level Seattle Center
06:43PM 47.7775 -120.1308 276° West 425 489 45,000 -60 Level Seattle Center
06:44PM 47.7911 -120.3042 277° West 425 489 44,900 -120 Descending Seattle Center
06:45PM 47.8042 -120.4772 276° West 424 488 44,800 -1,980 Descending Seattle Center
06:46PM 47.8150 -120.6469 275° West 415 478 40,900 -4,860 Descending Seattle Center
06:47PM 47.8250 -120.8083 275° West 401 461 35,000 -6,240 Descending Seattle Center
06:48PM 47.8392 -120.9661 278° West 382 440 28,300 -6,480 Descending Seattle Center
06:49PM 47.8508 -121.1469 276° West 370 426 21,900 -5,340 Descending Seattle Center
06:50PM 47.8583 -121.2633 276° West 304 350 18,100 -3,540 Descending Seattle Center
06:50PM 47.8622 -121.3208 276° West 294 338 16,900 -2,880 Descending Seattle Center
06:51PM 47.8658 -121.3936 274° West 297 342 14,900 -3,240 Descending Seattle Center
06:51PM 47.8706 -121.4556 277° West 275 316 13,300 -2,700 Descending Seattle Center
06:52PM 47.8733 -121.5000 275° West 264 304 12,200 -2,280 Descending Seattle Center
06:53PM 47.8781 -121.5706 276° West 261 300 10,800 -2,100 Descending Seattle Center
06:53PM 47.8803 -121.6111 275° West 272 313 10,100 -840 Descending Seattle Center
06:54PM 47.8811 -121.6947 271° West 277 319 10,000 -240 Descending Seattle Center
06:54PM 47.8708 -121.7214 240° Southwest 276 318 9,900 -720 Descending Seattle Center
06:54PM 47.8397 -121.7681 225° Southwest 276 318 9,400 -840 Descending Seattle Center
06:55PM 47.8150 -121.7994 220° Southwest 277 319 9,100 -720 Descending Seattle Center
06:56PM 47.7689 -121.8478 215° Southwest 283 326 8,600 -720 Descending Seattle Center
06:56PM 47.7508 -121.8622 208° Southwest 281 323 8,400 -720 Descending Seattle Center
06:57PM 47.7006 -121.9028 208° Southwest 284 327 7,900 -720 Descending Seattle Center
06:57PM 47.6808 -121.9147 202° Southwest 283 326 7,700 -900 Descending Seattle Center
06:58PM 47.6258 -121.9414 198° South 277 319 7,000 -900 Descending Seattle Center
06:58PM 47.5942 -121.9589 200° South 276 318 6,800 -720 Descending Seattle Center
06:59PM 47.5569 -121.9769 198° South 261 300 6,300 -840 Descending Seattle Center
06:59PM 47.5272 -121.9925 199° South 257 296 6,000 -840 Descending Seattle Center
07:00PM 47.4881 -122.0119 199° South 237 273 5,500 -840 Descending Seattle Center
07:00PM 47.4681 -122.0231 201° Southwest 227 261 5,200 -840 Descending Seattle Center
07:01PM 47.4356 -122.0414 201° Southwest 194 223 4,700 -780 Descending Seattle Center
07:01PM 47.4150 -122.0503 196° South 206 237 4,400 -600 Descending Seattle Center
07:02PM 47.3861 -122.0656 200° South 194 223 4,200 -540 Descending Seattle Center
07:02PM 47.3664 -122.0803 207° Southwest 191 220 3,900 -1,140 Descending Seattle Center
07:03PM 47.3422 -122.1031 213° Southwest 180 207 3,100 -1,500 Descending Seattle Center
07:03PM 47.3433 -122.1353 273° West 194 223 2,400 -1,140 Descending Seattle Center
07:04PM 47.3669 -122.1647 320° Northwest 199 229 2,000 -420 Descending Seattle Center
07:04PM 47.3831 -122.1786 330° Northwest 180 207 2,000  Level Seattle Center
07:05PM 47.4047 -122.1994 327° Northwest 155 178 2,000  Level Seattle Center
07:05PM 47.4219 -122.2122 333° Northwest 165 190 2,000 -120 Level Seattle Center
07:06PM 47.4439 -122.2303 331° Northwest 147 169 1,900 -420 Descending Seattle Center
07:06PM 47.4558 -122.2406 330° Northwest 130 150 1,600 -780 Descending Seattle Center
07:07PM 47.4719 -122.2539 331° Northwest 128 147 1,200 -900 Descending Seattle Center
07:07PM 47.4942 -122.2731 330° Northwest 134 154 700 -840 Descending Seattle Center
07:08PM 47.5036 -122.2825 326° Northwest 131 151 400 -840 Descending Seattle Center